createdAt,value
2019-02-19T00:02:06.415Z,21.23
2019-02-19T00:04:35.811Z,21.33
2019-02-19T00:07:05.248Z,21.50
2019-02-19T00:09:34.686Z,20.03
2019-02-19T00:12:04.352Z,21.23
2019-02-19T00:14:33.905Z,19.70
2019-02-19T00:17:03.375Z,20.47
2019-02-19T00:19:32.842Z,21.10
2019-02-19T00:22:02.271Z,20.90
2019-02-19T00:24:33.951Z,19.43
2019-02-19T00:27:04.311Z,20.67
2019-02-19T00:29:33.768Z,21.03
2019-02-19T00:32:03.199Z,20.13
2019-02-19T00:34:32.643Z,20.97
2019-02-19T00:37:02.115Z,20.33
2019-02-19T00:39:31.535Z,21.00
2019-02-19T00:42:00.991Z,21.57
2019-02-19T00:44:33.121Z,21.53
2019-02-19T00:47:03.772Z,20.70
2019-02-19T00:49:33.261Z,20.63
2019-02-19T00:52:02.632Z,21.17
2019-02-19T00:54:33.140Z,19.97
2019-02-19T00:57:02.585Z,22.07
2019-02-19T00:59:32.009Z,20.80
2019-02-19T01:02:01.445Z,21.07
2019-02-19T01:04:30.951Z,19.80
2019-02-19T01:07:00.476Z,19.90
2019-02-19T01:09:30.227Z,21.27
2019-02-19T01:11:59.683Z,20.90
2019-02-19T01:14:29.105Z,21.83
2019-02-19T01:16:58.558Z,19.90
2019-02-19T01:19:27.921Z,20.83
2019-02-19T01:21:57.373Z,21.27
2019-02-19T01:24:26.814Z,21.63
2019-02-19T01:26:56.169Z,20.60
2019-02-19T01:29:25.714Z,21.10
2019-02-19T01:31:55.811Z,20.37
2019-02-19T01:34:25.958Z,21.13
2019-02-19T01:36:56.046Z,21.47
2019-02-19T01:39:26.189Z,21.37
2019-02-19T01:41:56.346Z,21.17
2019-02-19T01:44:26.411Z,20.53
2019-02-19T01:46:56.459Z,21.80
2019-02-19T01:49:26.721Z,21.90
2019-02-19T01:51:56.784Z,20.77
2019-02-19T01:54:26.891Z,22.10
2019-02-19T01:56:57.048Z,21.43
2019-02-19T01:59:27.227Z,22.47
2019-02-19T02:01:57.331Z,22.75
2019-02-19T02:04:27.448Z,23.20
2019-02-19T02:06:57.502Z,23.10
2019-02-19T02:09:27.628Z,22.87
2019-02-19T02:11:58.684Z,22.40
2019-02-19T02:14:28.145Z,24.03
2019-02-19T02:16:58.035Z,22.77
2019-02-19T02:19:28.262Z,23.42
2019-02-19T02:22:00.016Z,24.45
2019-02-19T02:24:29.449Z,24.20
2019-02-19T02:26:58.809Z,24.03
2019-02-19T02:29:28.718Z,22.13
2019-02-19T02:31:58.862Z,24.00
2019-02-19T02:34:29.204Z,24.47
2019-02-19T02:36:59.279Z,25.90
2019-02-19T02:39:29.392Z,23.67
2019-02-19T02:41:59.532Z,25.43
2019-02-19T02:44:29.608Z,25.53
2019-02-19T02:46:59.748Z,25.27
2019-02-19T02:49:29.858Z,25.17
2019-02-19T02:51:59.984Z,25.30
2019-02-19T02:54:30.087Z,26.70
2019-02-19T02:57:00.318Z,26.52
2019-02-19T02:59:30.501Z,27.23
2019-02-19T03:02:00.563Z,28.77
2019-02-19T03:04:30.666Z,29.53
2019-02-19T03:07:05.149Z,28.70
2019-02-19T03:09:34.594Z,31.97
2019-02-19T03:12:04.111Z,32.20
2019-02-19T03:14:33.554Z,32.20
2019-02-19T03:17:03.020Z,33.40
2019-02-19T03:19:32.434Z,34.40
2019-02-19T03:22:01.860Z,33.20
2019-02-19T03:24:31.704Z,32.13
2019-02-19T03:27:01.818Z,33.03
2019-02-19T03:29:32.139Z,33.87
2019-02-19T03:32:02.635Z,33.27
2019-02-19T03:34:32.336Z,33.70
2019-02-19T03:37:02.360Z,34.90
2019-02-19T03:39:32.489Z,33.40
2019-02-19T03:42:02.607Z,34.10
2019-02-19T03:44:32.729Z,34.83
2019-02-19T03:47:02.938Z,33.80
2019-02-19T03:49:33.057Z,33.40
2019-02-19T03:52:03.174Z,32.00
2019-02-19T03:54:33.459Z,32.45
2019-02-19T03:57:03.591Z,33.75
2019-02-19T03:59:33.713Z,35.27
2019-02-19T04:02:03.893Z,33.03
2019-02-19T04:04:33.937Z,34.23
2019-02-19T04:07:03.980Z,34.00
2019-02-19T04:09:34.232Z,34.13
2019-02-19T04:12:04.388Z,34.07
2019-02-19T04:14:34.470Z,33.10
2019-02-19T04:17:04.635Z,34.03
2019-02-19T04:19:34.696Z,33.27
2019-02-19T04:22:04.891Z,32.70
2019-02-19T04:24:35.026Z,32.37
2019-02-19T04:27:05.397Z,33.03
2019-02-19T04:29:35.282Z,32.17
2019-02-19T04:32:06.339Z,32.20
2019-02-19T04:34:35.790Z,29.83
2019-02-19T04:37:05.748Z,29.77
2019-02-19T04:39:35.898Z,28.80
2019-02-19T04:42:05.996Z,30.43
2019-02-19T04:44:36.157Z,27.93
2019-02-19T04:47:06.282Z,29.37
2019-02-19T04:49:36.403Z,27.50
2019-02-19T04:52:06.494Z,25.07
2019-02-19T04:54:36.750Z,25.97
2019-02-19T04:57:06.830Z,25.95
2019-02-19T04:59:38.610Z,25.72
2019-02-19T05:02:10.525Z,23.62
2019-02-19T05:04:39.976Z,24.47
2019-02-19T05:07:09.414Z,23.77
2019-02-19T05:09:38.852Z,26.63
2019-02-19T05:12:09.370Z,27.80
2019-02-19T05:14:38.812Z,28.70
2019-02-19T05:17:08.613Z,28.57
2019-02-19T05:19:38.786Z,30.57
2019-02-19T05:22:08.936Z,31.30
2019-02-19T05:24:38.973Z,31.60
2019-02-19T05:27:09.110Z,33.13
2019-02-19T05:29:39.251Z,34.37
2019-02-19T05:32:09.386Z,32.80
2019-02-19T05:34:39.910Z,34.67
2019-02-19T05:37:11.380Z,32.83
2019-02-19T05:39:40.826Z,32.90
2019-02-19T05:42:10.272Z,32.03
2019-02-19T05:44:40.069Z,31.60
2019-02-19T05:47:09.518Z,30.20
2019-02-19T05:49:38.951Z,30.97
2019-02-19T05:52:08.389Z,31.27
2019-02-19T05:54:37.759Z,29.20
2019-02-19T06:00:35.376Z,27.77
2019-02-19T06:03:04.908Z,25.77
2019-02-19T06:05:34.426Z,26.83
2019-02-19T06:08:03.907Z,26.50
2019-02-19T06:10:33.321Z,24.97
2019-02-19T06:13:02.781Z,23.43
2019-02-19T06:15:32.223Z,23.57
2019-02-19T06:18:01.661Z,23.53
2019-02-19T06:20:31.017Z,23.93
2019-02-19T06:23:00.482Z,21.53
2019-02-19T06:25:29.935Z,21.67
2019-02-19T06:27:59.357Z,19.70
2019-02-19T06:30:28.726Z,19.47
2019-02-19T06:32:58.154Z,19.13
2019-02-19T06:35:27.529Z,19.50
2019-02-19T06:37:57.061Z,17.73
2019-02-19T06:40:28.473Z,18.43
2019-02-19T06:42:57.982Z,19.60
2019-02-19T06:45:29.801Z,19.37
2019-02-19T06:47:59.155Z,18.50
2019-02-19T06:50:28.599Z,19.97
2019-02-19T06:52:58.039Z,19.80
2019-02-19T06:55:30.297Z,18.27
2019-02-19T06:57:59.841Z,19.77
2019-02-19T07:00:29.279Z,19.03
2019-02-19T07:03:00.359Z,17.33
2019-02-19T07:05:29.876Z,17.53
2019-02-19T07:07:59.382Z,18.47
2019-02-19T07:10:30.061Z,18.67
2019-02-19T07:12:59.478Z,18.20
2019-02-19T07:15:28.904Z,19.30
2019-02-19T07:17:58.335Z,18.97
2019-02-19T07:20:27.705Z,17.87
2019-02-19T07:22:57.081Z,18.43
2019-02-19T07:25:26.573Z,17.23
2019-02-19T07:27:56.013Z,18.37
2019-02-19T07:30:25.458Z,17.10
2019-02-19T07:32:54.891Z,16.77
2019-02-19T07:35:24.247Z,17.23
2019-02-19T07:37:53.723Z,16.17
2019-02-19T07:40:23.162Z,15.67
2019-02-19T07:42:54.221Z,16.17
2019-02-19T07:45:23.575Z,15.60
2019-02-19T07:47:52.951Z,14.80
2019-02-19T07:50:25.167Z,15.90
2019-02-19T07:52:54.611Z,14.93
2019-02-19T07:55:24.031Z,15.13
2019-02-19T07:57:53.467Z,14.43
2019-02-19T08:00:22.818Z,15.17
2019-02-19T08:02:53.922Z,15.27
2019-02-19T08:05:25.947Z,15.73
2019-02-19T08:07:55.876Z,13.83
2019-02-19T08:10:25.314Z,14.60
2019-02-19T08:12:54.812Z,14.03
2019-02-19T08:15:24.361Z,13.53
2019-02-19T08:17:54.877Z,14.47
2019-02-19T08:20:24.332Z,14.70
2019-02-19T08:22:53.747Z,14.43
2019-02-19T08:25:23.141Z,15.03
2019-02-19T08:27:52.575Z,14.23
2019-02-19T08:30:22.113Z,14.90
2019-02-19T08:32:51.550Z,16.03
2019-02-19T08:35:21.016Z,15.37
2019-02-19T08:37:50.444Z,15.30
2019-02-19T08:40:20.216Z,14.30
2019-02-19T08:42:50.311Z,15.23
2019-02-19T08:45:20.443Z,16.53
2019-02-19T08:47:50.542Z,14.87
2019-02-19T08:50:20.776Z,15.53
2019-02-19T08:52:50.873Z,14.68
2019-02-19T08:55:20.996Z,14.17
2019-02-19T08:57:51.116Z,13.87
2019-02-19T09:00:21.308Z,14.57
2019-02-19T09:02:54.072Z,14.33
2019-02-19T09:05:23.455Z,15.33
2019-02-19T09:07:52.896Z,14.77
2019-02-19T09:10:22.373Z,14.53
2019-02-19T09:12:51.806Z,13.63
2019-02-19T09:15:22.411Z,12.87
2019-02-19T09:17:52.443Z,13.93
2019-02-19T09:20:22.303Z,14.15
2019-02-19T09:22:52.460Z,14.00
2019-02-19T09:25:22.432Z,15.60
2019-02-19T09:27:52.606Z,14.47
2019-02-19T09:30:22.710Z,12.80
2019-02-19T09:32:52.858Z,15.07
2019-02-19T09:35:22.971Z,14.27
2019-02-19T09:37:53.097Z,14.07
2019-02-19T09:40:23.200Z,13.20
2019-02-19T09:42:53.340Z,13.70
2019-02-19T09:45:23.489Z,13.97
2019-02-19T09:48:01.007Z,13.43
2019-02-19T09:50:24.700Z,13.03
2019-02-19T09:53:00.112Z,13.50
2019-02-19T09:55:25.225Z,12.73
2019-02-19T09:57:54.700Z,13.40
2019-02-19T10:00:24.402Z,13.57
2019-02-19T10:02:55.375Z,13.77
2019-02-19T10:05:24.821Z,11.90
2019-02-19T10:07:55.873Z,12.57
2019-02-19T10:10:25.507Z,12.67
2019-02-19T10:12:55.042Z,12.63
2019-02-19T10:15:25.218Z,13.33
2019-02-19T10:17:55.282Z,13.37
2019-02-19T10:20:25.352Z,13.43
2019-02-19T10:22:55.587Z,13.97
2019-02-19T10:25:25.702Z,11.48
2019-02-19T10:27:55.841Z,12.77
2019-02-19T10:30:25.953Z,12.70
2019-02-19T10:32:56.175Z,12.70
2019-02-19T10:35:28.558Z,12.40
2019-02-19T10:37:58.010Z,12.47
2019-02-19T10:40:27.432Z,11.83
2019-02-19T10:42:56.802Z,13.00
2019-02-19T10:45:27.486Z,12.53
2019-02-19T10:47:56.936Z,12.87
2019-02-19T10:50:26.992Z,11.80
2019-02-19T10:52:57.076Z,11.83
2019-02-19T10:55:27.206Z,11.80
2019-02-19T10:57:57.486Z,11.60
2019-02-19T11:00:27.554Z,12.23
2019-02-19T11:02:57.674Z,11.77
2019-02-19T11:05:27.800Z,11.87
2019-02-19T11:07:57.887Z,12.57
2019-02-19T11:10:28.023Z,12.30
2019-02-19T11:12:58.131Z,12.50
2019-02-19T11:15:28.258Z,12.87
2019-02-19T11:17:58.359Z,13.13
2019-02-19T11:20:29.003Z,11.50
2019-02-19T11:22:58.584Z,12.67
2019-02-19T11:25:28.746Z,13.00
2019-02-19T11:27:59.092Z,11.70
2019-02-19T11:30:29.176Z,13.27
2019-02-19T11:32:59.324Z,12.17
2019-02-19T11:35:29.383Z,12.10
2019-02-19T11:37:59.500Z,13.10
2019-02-19T11:40:29.645Z,12.23
2019-02-19T11:42:59.743Z,12.53
2019-02-19T11:45:30.262Z,13.23
2019-02-19T11:48:00.380Z,12.85
2019-02-19T11:50:30.314Z,11.80
2019-02-19T11:53:00.303Z,13.30
2019-02-19T11:55:30.556Z,12.30
2019-02-19T11:58:00.603Z,12.07
2019-02-19T12:00:35.363Z,12.03
2019-02-19T12:03:04.935Z,11.90
2019-02-19T12:05:34.391Z,11.93
2019-02-19T12:08:03.838Z,13.13
2019-02-19T12:10:33.287Z,12.67
2019-02-19T12:13:02.800Z,13.03
2019-02-19T12:15:35.122Z,13.27
2019-02-19T12:18:03.389Z,12.10
2019-02-19T12:20:32.816Z,12.30
2019-02-19T12:23:02.271Z,12.50
2019-02-19T12:25:32.089Z,12.47
2019-02-19T12:28:02.150Z,12.23
2019-02-19T12:30:32.251Z,12.73
2019-02-19T12:33:02.385Z,11.87
2019-02-19T12:35:33.868Z,12.67
2019-02-19T12:38:03.256Z,12.37
2019-02-19T12:40:32.706Z,11.10
2019-02-19T12:43:02.943Z,11.55
2019-02-19T12:45:33.056Z,12.80
2019-02-19T12:48:03.177Z,12.93
2019-02-19T12:50:33.305Z,12.23
2019-02-19T12:53:03.527Z,12.00
2019-02-19T12:55:33.513Z,11.10
2019-02-19T12:58:03.749Z,10.77
2019-02-19T13:00:33.907Z,10.27
2019-02-19T13:03:03.998Z,10.53
2019-02-19T13:05:34.205Z,11.80
2019-02-19T13:08:04.333Z,10.73
2019-02-19T13:10:34.315Z,11.87
2019-02-19T13:13:04.695Z,12.07
2019-02-19T13:15:34.797Z,12.10
2019-02-19T13:18:04.865Z,12.23
2019-02-19T13:20:34.895Z,11.07
2019-02-19T13:23:05.119Z,10.95
2019-02-19T13:25:35.132Z,10.73
2019-02-19T13:28:05.649Z,10.67
2019-02-19T13:30:35.476Z,9.95
2019-02-19T13:33:04.995Z,9.97
2019-02-19T13:35:34.506Z,11.93
2019-02-19T13:38:03.952Z,11.67
2019-02-19T13:40:33.384Z,11.73
2019-02-19T13:43:02.823Z,12.43
2019-02-19T13:45:32.360Z,11.43
2019-02-19T13:48:06.158Z,10.97
2019-02-19T13:50:36.523Z,11.23
2019-02-19T13:53:08.275Z,11.22
2019-02-19T13:55:41.896Z,11.87
2019-02-19T13:58:11.335Z,11.73
2019-02-19T14:00:42.493Z,11.43
2019-02-19T14:03:11.946Z,11.40
2019-02-19T14:05:41.391Z,11.13
2019-02-19T14:08:14.524Z,11.03
2019-02-19T14:10:42.079Z,10.23
2019-02-19T14:13:11.506Z,9.77
2019-02-19T14:15:58.862Z,9.30
2019-02-19T14:18:29.939Z,9.23
2019-02-19T14:21:03.823Z,10.07
2019-02-19T14:23:38.020Z,9.47
2019-02-19T14:26:28.262Z,8.97
2019-02-19T14:28:59.335Z,9.70
2019-02-19T14:31:45.726Z,9.00
2019-02-19T14:34:33.246Z,7.93
2019-02-19T14:37:08.968Z,9.53
2019-02-19T14:39:43.692Z,7.47
2019-02-19T14:42:31.267Z,8.20
2019-02-19T14:45:02.425Z,7.50
2019-02-19T14:47:46.144Z,7.67
2019-02-19T14:50:23.666Z,7.40
2019-02-19T14:52:57.721Z,7.93
2019-02-19T14:55:34.850Z,8.13
2019-02-19T14:58:06.057Z,8.03
2019-02-19T15:00:37.101Z,7.43
2019-02-19T15:03:14.198Z,8.00
2019-02-19T15:05:54.250Z,7.43
2019-02-19T15:08:34.006Z,6.70
2019-02-19T15:11:10.814Z,7.00
2019-02-19T15:13:41.958Z,6.97
2019-02-19T15:16:19.455Z,7.40
2019-02-19T15:18:53.266Z,7.50
2019-02-19T15:21:26.940Z,6.67
2019-02-19T15:24:14.372Z,6.20
2019-02-19T15:26:52.468Z,6.60
2019-02-19T15:29:43.584Z,6.73
2019-02-19T15:32:14.660Z,5.63
2019-02-19T15:35:02.298Z,6.53
2019-02-19T15:37:45.291Z,6.87
2019-02-19T15:40:25.630Z,6.77
2019-02-19T15:42:59.409Z,6.30
2019-02-19T15:45:34.112Z,6.40
2019-02-19T15:48:05.110Z,6.87
2019-02-19T15:50:52.280Z,6.60
2019-02-19T15:53:23.350Z,6.17
2019-02-19T15:56:17.162Z,5.93
2019-02-19T15:58:58.070Z,6.10
2019-02-19T16:01:44.319Z,6.03
2019-02-19T16:04:31.797Z,5.67
2019-02-19T16:07:05.618Z,5.67
2019-02-19T16:09:44.056Z,5.30
2019-02-19T16:12:15.879Z,5.77
2019-02-19T16:14:49.859Z,5.13
2019-02-19T16:17:23.578Z,4.97
2019-02-19T16:19:57.035Z,4.97
2019-02-19T16:22:33.473Z,5.90
2019-02-19T16:25:20.865Z,5.17
2019-02-19T16:27:52.512Z,5.53
2019-02-19T16:30:32.889Z,5.80
2019-02-19T16:33:04.072Z,5.47
2019-02-19T16:35:38.122Z,5.50
2019-02-19T16:38:10.316Z,5.70
2019-02-19T16:40:45.999Z,6.40
2019-02-19T16:43:17.773Z,6.77
2019-02-19T16:45:51.658Z,6.30
2019-02-19T16:48:28.975Z,6.90
2019-02-19T16:51:16.567Z,6.13
2019-02-19T16:54:04.637Z,6.05
2019-02-19T16:56:41.579Z,6.37
2019-02-19T16:59:12.774Z,5.60
2019-02-19T17:01:46.772Z,5.47
2019-02-19T17:04:18.807Z,5.20
2019-02-19T17:06:52.742Z,5.30
2019-02-19T17:09:23.843Z,6.30
2019-02-19T17:11:54.935Z,6.33
2019-02-19T17:14:33.257Z,6.00
2019-02-19T17:17:01.574Z,6.30
2019-02-19T17:19:50.391Z,6.40
2019-02-19T17:22:23.939Z,6.87
2019-02-19T17:24:55.108Z,5.57
2019-02-19T17:27:36.584Z,6.63
2019-02-19T17:30:27.135Z,6.43
2019-02-19T17:33:00.972Z,6.40
2019-02-19T17:35:32.088Z,6.57
2019-02-19T17:38:14.665Z,6.57
2019-02-19T17:40:56.923Z,6.67
2019-02-19T17:43:33.980Z,6.77
2019-02-19T17:46:07.609Z,6.63
2019-02-19T17:48:38.701Z,6.77
2019-02-19T17:51:09.859Z,6.47
2019-02-19T17:53:49.684Z,7.20
2019-02-19T17:56:24.159Z,7.53
2019-02-19T17:59:13.649Z,6.90
2019-02-19T18:02:00.943Z,6.90
2019-02-19T18:04:32.099Z,7.73
2019-02-19T18:07:19.535Z,7.80
2019-02-19T18:09:50.680Z,8.83
2019-02-19T18:12:25.365Z,7.93
2019-02-19T18:15:05.302Z,7.07
2019-02-19T18:17:36.449Z,7.43
2019-02-19T18:20:07.831Z,6.63
2019-02-19T18:22:37.719Z,7.20
2019-02-19T18:25:07.799Z,8.23
2019-02-19T18:27:37.930Z,7.43
2019-02-19T18:30:11.257Z,7.10
2019-02-19T18:32:40.839Z,7.13
2019-02-19T18:35:10.418Z,7.63
2019-02-19T18:37:41.239Z,7.37
2019-02-19T18:40:10.741Z,7.07
2019-02-19T18:42:41.821Z,7.47
2019-02-19T18:45:11.325Z,8.43
2019-02-19T18:47:42.691Z,7.87
2019-02-19T18:50:12.274Z,7.17
2019-02-19T18:52:43.304Z,7.53
2019-02-19T18:55:12.819Z,6.93
2019-02-19T18:57:43.905Z,7.17
2019-02-19T19:00:13.770Z,7.20
2019-02-19T19:02:43.252Z,7.60
2019-02-19T19:05:13.731Z,7.63
2019-02-19T19:07:44.854Z,8.03
2019-02-19T19:10:16.024Z,7.17
2019-02-19T19:12:47.426Z,8.13
2019-02-19T19:15:16.913Z,7.67
2019-02-19T19:17:46.371Z,8.00
2019-02-19T19:20:15.857Z,8.47
2019-02-19T19:22:47.044Z,8.37
2019-02-19T19:25:20.382Z,8.67
2019-02-19T19:27:50.548Z,7.97
2019-02-19T19:30:20.154Z,8.37
2019-02-19T19:32:49.693Z,8.60
2019-02-19T19:35:21.879Z,8.23
2019-02-19T19:37:53.538Z,8.00
2019-02-19T19:40:27.059Z,8.87
2019-02-19T19:42:57.635Z,7.87
2019-02-19T19:45:27.809Z,8.50
2019-02-19T19:47:58.042Z,7.67
2019-02-19T19:50:28.215Z,8.67
2019-02-19T19:53:00.206Z,8.43
2019-02-19T19:55:29.728Z,8.37
2019-02-19T19:58:00.377Z,8.13
2019-02-19T20:00:31.970Z,8.17
2019-02-19T20:03:02.789Z,7.97
2019-02-19T20:05:33.217Z,8.23
2019-02-19T20:08:02.733Z,8.37
2019-02-19T20:10:33.176Z,8.23
2019-02-19T20:13:03.913Z,7.70
2019-02-19T20:15:34.404Z,7.70
2019-02-19T20:18:09.809Z,8.97
2019-02-19T20:20:39.064Z,8.13
2019-02-19T20:23:08.504Z,8.43
2019-02-19T20:25:38.033Z,8.23
2019-02-19T20:28:08.941Z,8.23
2019-02-19T20:30:42.918Z,8.30
2019-02-19T20:33:12.441Z,7.77
2019-02-19T20:35:44.052Z,8.57
2019-02-19T20:38:16.774Z,7.73
2019-02-19T20:40:52.201Z,7.80
2019-02-19T20:43:21.682Z,9.03
2019-02-19T20:45:51.200Z,8.10
2019-02-19T20:48:22.032Z,7.57
2019-02-19T20:50:52.902Z,8.37
2019-02-19T20:53:23.457Z,8.00
2019-02-19T20:55:58.876Z,8.63
2019-02-19T20:58:28.503Z,9.10
2019-02-19T21:00:58.033Z,9.47
2019-02-19T21:03:38.678Z,10.30
2019-02-19T21:06:11.145Z,10.20
2019-02-19T21:08:42.582Z,9.40
2019-02-19T21:11:12.098Z,9.33
2019-02-19T21:13:41.650Z,9.60
2019-02-19T21:16:12.802Z,9.40
2019-02-19T21:18:42.248Z,9.37
2019-02-19T21:21:12.878Z,9.33
2019-02-19T21:23:42.365Z,9.37
2019-02-19T21:26:11.855Z,9.40
2019-02-19T21:28:41.377Z,9.00
2019-02-19T21:31:10.949Z,8.47
2019-02-19T21:33:41.652Z,9.57
2019-02-19T21:36:11.258Z,9.50
2019-02-19T21:38:41.476Z,9.15
2019-02-19T21:41:11.496Z,10.33
2019-02-19T21:43:41.808Z,9.00
2019-02-19T21:46:12.446Z,8.87
2019-02-19T21:48:48.014Z,10.10
2019-02-19T21:51:14.219Z,10.17
2019-02-19T21:53:43.681Z,9.33
2019-02-19T21:56:13.148Z,10.80
2019-02-19T21:58:42.654Z,9.73
2019-02-19T22:01:13.186Z,9.97
2019-02-19T22:03:43.345Z,10.17
2019-02-19T22:06:13.464Z,10.67
2019-02-19T22:08:43.569Z,11.27
2019-02-19T22:11:13.763Z,10.73
2019-02-19T22:13:43.874Z,11.03
2019-02-19T22:16:13.928Z,10.30
2019-02-19T22:18:44.038Z,11.30
2019-02-19T22:21:16.060Z,11.43
2019-02-19T22:23:45.569Z,12.37
2019-02-19T22:26:15.020Z,11.03
2019-02-19T22:28:44.513Z,12.17
2019-02-19T22:31:14.654Z,11.77
2019-02-19T22:33:44.908Z,11.45
2019-02-19T22:36:14.992Z,12.07
2019-02-19T22:38:45.593Z,12.17
2019-02-19T22:41:15.062Z,11.57
2019-02-19T22:43:45.265Z,12.80
2019-02-19T22:46:15.474Z,12.43
2019-02-19T22:48:45.848Z,12.80
2019-02-19T22:51:15.783Z,12.78
2019-02-19T22:53:53.100Z,13.00
2019-02-19T22:56:27.143Z,12.50
2019-02-19T22:58:56.580Z,12.67
2019-02-19T23:01:28.439Z,12.50
2019-02-19T23:03:58.013Z,13.20
2019-02-19T23:06:27.476Z,13.17
2019-02-19T23:08:57.038Z,13.07
2019-02-19T23:11:26.545Z,12.10
2019-02-19T23:13:55.937Z,13.00
2019-02-19T23:16:25.382Z,12.47
2019-02-19T23:18:54.824Z,13.10
2019-02-19T23:21:24.172Z,12.63
2019-02-19T23:23:53.560Z,12.63
2019-02-19T23:26:23.085Z,12.03
2019-02-19T23:28:52.582Z,12.73
2019-02-19T23:31:22.021Z,13.00
2019-02-19T23:33:51.448Z,13.20
2019-02-19T23:36:22.582Z,12.60
2019-02-19T23:38:51.964Z,13.90
2019-02-19T23:41:21.458Z,12.00
2019-02-19T23:43:50.986Z,12.60
2019-02-19T23:46:20.420Z,12.63
2019-02-19T23:48:49.858Z,13.23
2019-02-19T23:51:19.298Z,13.90
2019-02-19T23:53:48.974Z,13.97
2019-02-19T23:56:19.080Z,11.90
2019-02-19T23:58:49.204Z,13.00
